SALOAN 191700Z 33009KT 45KM SCT040CU
FCLOAN 191125Z 1912/1921 33010KT 9999 FEW050 SCT100 TEMPO 1912/1918 33015G28KT SCT040